Time;durP1;ratioP1;P1;durP2;ratioP2;P2;SDS_P1;SDS_P2;PMS_P1;PMS_P2;Temp;Humidity;BMP_temperature;BMP_pressure;BME280_temperature;BME280_humidity;BME280_pressure;Samples;Min_cycle;Max_cycle;Signal;HPM_P1;HPM_P2
2022/03/16 00:00:13;;;;;;;13.30;11.90;;;8.70;86.50;;;;;;5035757;28;20450;-71
2022/03/16 00:02:40;;;;;;;14.60;11.13;;;8.70;86.50;;;;;;5035698;28;20500;-71
2022/03/16 00:05:08;;;;;;;11.50;10.40;;;8.70;86.40;;;;;;5035447;28;21039;-71
2022/03/16 00:07:34;;;;;;;11.73;10.00;;;8.70;86.40;;;;;;5035596;28;20446;-72
2022/03/16 00:10:02;;;;;;;11.40;10.30;;;8.70;86.40;;;;;;5034899;28;20466;-71
2022/03/16 00:12:29;;;;;;;11.53;10.30;;;8.60;86.30;;;;;;5035226;28;21008;-71
2022/03/16 00:14:56;;;;;;;12.93;11.47;;;8.60;86.30;;;;;;5035413;28;21061;-71
2022/03/16 00:17:23;;;;;;;11.60;10.50;;;8.60;86.30;;;;;;5035504;28;20450;-71
2022/03/16 00:19:49;;;;;;;12.60;10.10;;;8.60;86.30;;;;;;5035324;28;20453;-71
2022/03/16 00:22:16;;;;;;;13.90;11.60;;;8.60;86.30;;;;;;5036111;28;20452;-71
2022/03/16 00:24:43;;;;;;;12.97;11.30;;;8.60;86.30;;;;;;5035964;28;20833;-71
2022/03/16 00:27:11;;;;;;;12.23;11.00;;;8.60;86.30;;;;;;5036110;28;20450;-71
2022/03/16 00:29:38;;;;;;;11.20;10.00;;;8.50;86.30;;;;;;5036738;28;20446;-71
2022/03/16 00:32:06;;;;;;;11.90;10.33;;;8.50;86.40;;;;;;5037838;28;20450;-71
2022/03/16 00:34:32;;;;;;;11.77;10.67;;;8.50;86.40;;;;;;5037355;28;20474;-70
2022/03/16 00:36:59;;;;;;;12.47;11.27;;;8.50;86.40;;;;;;5037577;28;20451;-70
2022/03/16 00:39:26;;;;;;;11.93;10.83;;;8.50;86.50;;;;;;5046027;28;20469;-72
2022/03/16 00:41:53;;;;;;;12.60;11.20;;;8.50;86.60;;;;;;5044250;28;20453;-71
2022/03/16 00:44:21;;;;;;;13.90;11.57;;;8.40;86.50;;;;;;5045284;28;20462;-70
2022/03/16 00:46:47;;;;;;;13.17;10.77;;;8.40;86.50;;;;;;5042026;28;20447;-71
2022/03/16 00:49:14;;;;;;;13.63;11.20;;;8.40;86.60;;;;;;5035805;28;20478;-71
2022/03/16 00:51:41;;;;;;;12.83;10.60;;;8.40;86.60;;;;;;5034731;28;20459;-71
2022/03/16 00:54:08;;;;;;;13.43;12.03;;;8.40;86.80;;;;;;5034388;28;20506;-71
2022/03/16 00:56:35;;;;;;;11.47;10.33;;;8.30;86.90;;;;;;5034560;28;20864;-71
2022/03/16 00:59:02;;;;;;;12.40;11.20;;;8.40;87.60;;;;;;5033979;28;20455;-71
2022/03/16 01:01:30;;;;;;;12.20;10.90;;;8.30;87.80;;;;;;5034426;28;20478;-71
2022/03/16 01:03:57;;;;;;;12.90;11.57;;;8.30;87.90;;;;;;5034336;28;20452;-71
2022/03/16 01:06:24;;;;;;;13.63;11.70;;;8.30;87.90;;;;;;5033895;28;20868;-71
2022/03/16 01:08:50;;;;;;;12.63;11.37;;;8.30;87.90;;;;;;5033912;28;20459;-71
2022/03/16 01:11:17;;;;;;;12.37;11.20;;;8.30;88.00;;;;;;5033901;28;20458;-70
2022/03/16 01:13:44;;;;;;;13.40;12.10;;;8.30;88.20;;;;;;5034050;28;20491;-70
2022/03/16 01:16:12;;;;;;;13.20;11.30;;;8.20;88.30;;;;;;5034165;28;20477;-71
2022/03/16 01:18:40;;;;;;;18.67;12.37;;;8.30;88.90;;;;;;5034238;28;20458;-71
2022/03/16 01:21:07;;;;;;;13.37;11.23;;;8.20;89.10;;;;;;5034102;28;20439;-71
2022/03/16 01:23:36;;;;;;;12.83;11.50;;;8.20;90.00;;;;;;5034048;28;20521;-71
2022/03/16 01:26:03;;;;;;;12.03;10.83;;;8.20;89.60;;;;;;5033980;28;20474;-71
2022/03/16 01:28:30;;;;;;;13.77;12.33;;;8.20;89.70;;;;;;5033937;28;20451;-71
2022/03/16 01:30:57;;;;;;;13.37;11.93;;;8.20;89.50;;;;;;5033928;28;20453;-71
2022/03/16 01:33:24;;;;;;;14.27;12.77;;;8.20;89.50;;;;;;5033582;28;20485;-71
2022/03/16 01:35:52;;;;;;;12.23;11.00;;;8.20;90.00;;;;;;5033694;28;20471;-71
2022/03/16 01:38:19;;;;;;;13.30;11.10;;;8.10;90.00;;;;;;5033816;28;20485;-71
2022/03/16 01:40:46;;;;;;;14.10;12.60;;;8.10;90.00;;;;;;5033823;28;20474;-71
2022/03/16 01:43:12;;;;;;;13.63;12.23;;;8.10;90.10;;;;;;5033574;28;20489;-71
2022/03/16 01:45:45;;;;;;;14.13;12.67;;;8.10;90.10;;;;;;5033736;28;20466;-71
2022/03/16 01:48:12;;;;;;;12.83;11.63;;;8.10;90.20;;;;;;5033945;28;20431;-71
2022/03/16 01:50:39;;;;;;;12.87;11.63;;;8.10;90.50;;;;;;5033192;28;20477;-71
2022/03/16 01:53:07;;;;;;;13.37;12.07;;;8.10;90.10;;;;;;5033315;28;20486;-71
2022/03/16 01:55:34;;;;;;;15.20;12.23;;;8.00;90.00;;;;;;5033535;28;20475;-71
2022/03/16 01:58:02;;;;;;;14.40;13.00;;;8.00;89.90;;;;;;5034483;28;20454;-70
2022/03/16 02:00:29;;;;;;;13.87;11.83;;;8.00;89.90;;;;;;5033704;28;20454;-70
2022/03/16 02:02:56;;;;;;;13.90;12.27;;;8.00;89.80;;;;;;5033419;28;20855;-71
2022/03/16 02:05:22;;;;;;;13.50;12.20;;;8.00;89.70;;;;;;5033477;28;20894;-71
2022/03/16 02:07:50;;;;;;;13.87;12.30;;;8.00;89.70;;;;;;5033642;28;20454;-71
2022/03/16 02:10:18;;;;;;;13.80;12.50;;;8.00;89.80;;;;;;5033298;28;20458;-71
2022/03/16 02:12:47;;;;;;;15.33;13.50;;;7.90;90.00;;;;;;5033446;28;20455;-71
2022/03/16 02:15:14;;;;;;;14.23;12.80;;;7.90;90.00;;;;;;5033431;28;20474;-70
2022/03/16 02:17:41;;;;;;;14.77;13.27;;;7.90;90.10;;;;;;5033835;28;20453;-76
2022/03/16 02:20:09;;;;;;;13.60;12.30;;;7.90;90.30;;;;;;5033741;28;20466;-71
2022/03/16 02:22:42;;;;;;;14.83;12.37;;;7.90;90.40;;;;;;5033572;28;20457;-71
2022/03/16 02:25:11;;;;;;;15.30;13.23;;;7.80;90.70;;;;;;5033530;28;20489;-70
2022/03/16 02:27:40;;;;;;;15.10;13.50;;;7.80;90.70;;;;;;5033686;28;20455;-71
2022/03/16 02:30:08;;;;;;;13.97;12.57;;;7.80;90.60;;;;;;5033593;28;20478;-71
2022/03/16 02:32:34;;;;;;;14.57;12.00;;;7.80;90.70;;;;;;5033431;28;20924;-71
2022/03/16 02:35:01;;;;;;;16.23;13.10;;;7.80;90.60;;;;;;5032781;28;20863;-71
2022/03/16 02:37:28;;;;;;;13.53;12.33;;;7.70;90.50;;;;;;5033367;28;20454;-71
2022/03/16 02:39:55;;;;;;;13.60;12.23;;;7.70;90.30;;;;;;5033350;28;20451;-71
2022/03/16 02:42:23;;;;;;;14.47;12.90;;;7.70;90.60;;;;;;5033258;28;20481;-71
2022/03/16 02:44:50;;;;;;;12.93;11.70;;;7.60;90.10;;;;;;5033294;28;20470;-71
2022/03/16 02:47:20;;;;;;;12.57;11.23;;;7.60;90.10;;;;;;5033310;28;20454;-71
2022/03/16 02:49:48;;;;;;;13.90;11.17;;;7.60;90.00;;;;;;5033227;28;20446;-71
2022/03/16 02:52:15;;;;;;;13.57;12.17;;;7.60;90.00;;;;;;5033344;28;20457;-71
2022/03/16 02:54:42;;;;;;;13.67;12.27;;;7.60;89.90;;;;;;5033208;28;20494;-70
2022/03/16 02:57:08;;;;;;;15.40;11.40;;;7.60;89.90;;;;;;5033403;28;20477;-70
2022/03/16 02:59:37;;;;;;;12.93;11.60;;;7.50;89.70;;;;;;5032910;28;21030;-71
2022/03/16 03:02:04;;;;;;;14.13;12.80;;;7.50;89.70;;;;;;5033164;28;20864;-71
2022/03/16 03:04:31;;;;;;;13.00;11.57;;;7.50;89.50;;;;;;5036561;28;20480;-70
2022/03/16 03:06:58;;;;;;;14.20;12.63;;;7.50;89.40;;;;;;5036669;28;20446;-70
2022/03/16 03:09:25;;;;;;;13.53;12.23;;;7.50;90.00;;;;;;5036828;28;20477;-70
2022/03/16 03:11:52;;;;;;;12.33;10.80;;;7.50;89.20;;;;;;5036300;28;20466;-70
2022/03/16 03:14:19;;;;;;;13.80;12.50;;;7.50;89.10;;;;;;5036441;28;20513;-70
2022/03/16 03:16:47;;;;;;;13.50;12.17;;;7.40;88.90;;;;;;5036273;28;20452;-70
2022/03/16 03:19:14;;;;;;;14.60;13.10;;;7.40;89.00;;;;;;5036585;28;20504;-70
2022/03/16 03:21:41;;;;;;;13.73;12.33;;;7.40;89.10;;;;;;5037280;28;20450;-70
2022/03/16 03:24:08;;;;;;;12.73;11.43;;;7.30;89.20;;;;;;5036315;28;20477;-71
2022/03/16 03:26:35;;;;;;;12.60;11.40;;;7.30;89.40;;;;;;5036263;28;20500;-71
2022/03/16 03:29:02;;;;;;;13.73;12.33;;;7.30;89.30;;;;;;5035832;28;20941;-71
2022/03/16 03:31:29;;;;;;;13.47;12.07;;;7.30;89.10;;;;;;5035847;28;20447;-71
2022/03/16 03:33:57;;;;;;;14.47;12.50;;;7.20;89.30;;;;;;5036253;28;20486;-70
2022/03/16 03:36:24;;;;;;;15.40;13.80;;;7.20;89.40;;;;;;5035840;28;20442;-71
2022/03/16 03:38:50;;;;;;;14.40;12.93;;;7.20;89.80;;;;;;5035883;28;20451;-70
2022/03/16 03:41:17;;;;;;;15.40;12.80;;;7.20;90.00;;;;;;5035930;28;20454;-70
2022/03/16 03:43:44;;;;;;;15.80;13.47;;;7.20;90.00;;;;;;5035851;28;20443;-70
2022/03/16 03:46:11;;;;;;;13.40;12.00;;;7.20;90.00;;;;;;5035505;28;20467;-70
2022/03/16 03:48:37;;;;;;;14.17;12.43;;;7.20;90.00;;;;;;5035794;28;20473;-70
2022/03/16 03:51:05;;;;;;;14.13;12.57;;;7.10;90.00;;;;;;5035318;28;20949;-70
2022/03/16 03:53:33;;;;;;;15.77;12.17;;;7.10;90.00;;;;;;5035601;28;20483;-70
2022/03/16 03:56:00;;;;;;;14.27;12.80;;;7.10;90.10;;;;;;5035595;28;20473;-70
2022/03/16 03:58:27;;;;;;;15.73;13.13;;;7.10;90.20;;;;;;5035173;28;20493;-70
2022/03/16 04:00:53;;;;;;;15.03;12.90;;;7.10;90.40;;;;;;5035412;28;20453;-70
2022/03/16 04:03:20;;;;;;;14.00;12.60;;;7.10;90.60;;;;;;5035377;28;20454;-70
2022/03/16 04:05:47;;;;;;;16.03;13.73;;;7.00;90.50;;;;;;5035276;28;20502;-70
2022/03/16 04:08:15;;;;;;;16.20;13.20;;;7.00;90.50;;;;;;5035332;28;20459;-70
2022/03/16 04:10:42;;;;;;;13.87;12.47;;;7.00;90.50;;;;;;5034897;28;20833;-70
2022/03/16 04:13:08;;;;;;;14.30;11.93;;;7.00;90.40;;;;;;5034978;28;20965;-70
2022/03/16 04:15:35;;;;;;;15.90;12.77;;;7.00;90.40;;;;;;5034514;28;20486;-70
2022/03/16 04:18:02;;;;;;;14.83;11.57;;;7.00;90.40;;;;;;5034792;28;20945;-70
2022/03/16 04:20:29;;;;;;;14.80;12.63;;;7.00;90.40;;;;;;5034789;28;20965;-70
2022/03/16 04:22:55;;;;;;;12.50;11.20;;;7.00;90.50;;;;;;5035159;28;20454;-70
2022/03/16 04:25:23;;;;;;;15.37;13.70;;;7.00;90.70;;;;;;5035225;28;20463;-70
2022/03/16 04:27:50;;;;;;;15.33;13.63;;;6.90;90.80;;;;;;5035236;28;20454;-70
2022/03/16 04:30:17;;;;;;;19.10;14.57;;;7.00;91.10;;;;;;5035224;28;20477;-70
2022/03/16 04:32:44;;;;;;;13.40;12.10;;;7.00;91.40;;;;;;5034918;28;20865;-70
2022/03/16 04:35:10;;;;;;;14.63;13.13;;;7.00;91.50;;;;;;5034519;28;20499;-70
2022/03/16 04:37:37;;;;;;;14.23;12.73;;;6.90;91.70;;;;;;5034675;28;20481;-71
2022/03/16 04:40:04;;;;;;;15.20;13.40;;;6.90;91.90;;;;;;5034875;28;20454;-70
2022/03/16 04:42:33;;;;;;;15.10;13.00;;;7.00;92.00;;;;;;5034867;28;20533;-70
2022/03/16 04:44:59;;;;;;;13.30;11.90;;;7.00;92.10;;;;;;5034794;28;20477;-70
2022/03/16 04:47:26;;;;;;;14.30;12.70;;;6.90;92.20;;;;;;5034816;28;20477;-70
2022/03/16 04:49:53;;;;;;;14.83;13.30;;;7.00;92.60;;;;;;5034674;28;20457;-71
2022/03/16 04:52:20;;;;;;;17.13;13.37;;;7.00;92.30;;;;;;5034560;28;20473;-71
2022/03/16 04:54:46;;;;;;;17.10;13.90;;;7.00;92.30;;;;;;5034247;28;20486;-71
2022/03/16 04:57:13;;;;;;;15.13;12.07;;;7.00;92.40;;;;;;5034665;28;20449;-71
2022/03/16 04:59:41;;;;;;;16.50;14.80;;;7.00;92.40;;;;;;5034596;28;20446;-71
2022/03/16 05:02:08;;;;;;;16.80;15.10;;;7.00;92.40;;;;;;5034236;28;21023;-71
2022/03/16 05:04:35;;;;;;;16.70;14.23;;;7.00;92.40;;;;;;5038760;28;20827;-71
2022/03/16 05:07:02;;;;;;;15.20;13.50;;;7.00;92.30;;;;;;5043349;28;20457;-71
2022/03/16 05:09:29;;;;;;;16.20;14.53;;;7.00;92.30;;;;;;5040316;28;20423;-70
2022/03/16 05:11:55;;;;;;;17.23;14.93;;;7.00;92.30;;;;;;5034303;28;20957;-71
2022/03/16 05:14:22;;;;;;;15.77;14.13;;;6.90;92.20;;;;;;5034307;28;20490;-70
2022/03/16 05:16:50;;;;;;;18.23;14.53;;;6.90;92.30;;;;;;5034100;28;20454;-70
2022/03/16 05:19:17;;;;;;;16.97;14.10;;;6.90;92.40;;;;;;5033842;28;20457;-71
2022/03/16 05:21:44;;;;;;;17.30;14.80;;;6.90;92.50;;;;;;5034290;28;20446;-70
2022/03/16 05:24:11;;;;;;;17.57;15.33;;;6.90;92.60;;;;;;5033860;28;20509;-70
2022/03/16 05:26:37;;;;;;;17.20;14.07;;;6.90;92.60;;;;;;5033192;28;20818;-70
2022/03/16 05:29:05;;;;;;;18.13;15.47;;;6.90;92.70;;;;;;5034018;28;20439;-70
2022/03/16 05:31:32;;;;;;;18.50;15.80;;;6.90;92.70;;;;;;5033604;28;20828;-70
2022/03/16 05:34:00;;;;;;;17.57;14.47;;;6.90;92.80;;;;;;5033705;28;20482;-70
2022/03/16 05:36:27;;;;;;;17.90;14.90;;;6.90;92.80;;;;;;5033557;28;20934;-71
2022/03/16 05:38:53;;;;;;;18.17;13.90;;;6.90;92.90;;;;;;5033888;28;20452;-71
2022/03/16 05:41:20;;;;;;;19.30;15.67;;;6.90;92.80;;;;;;5033529;28;20446;-70
2022/03/16 05:43:49;;;;;;;19.60;14.97;;;6.90;92.80;;;;;;5033436;28;20456;-70
2022/03/16 05:46:16;;;;;;;17.83;15.07;;;6.90;92.80;;;;;;5033915;28;20454;-71
2022/03/16 05:48:42;;;;;;;18.17;16.27;;;6.90;92.80;;;;;;5033366;28;20968;-70
2022/03/16 05:51:10;;;;;;;19.27;16.00;;;6.90;92.80;;;;;;5033280;28;20827;-70
2022/03/16 05:53:37;;;;;;;19.00;14.30;;;6.90;92.80;;;;;;5033621;28;20450;-71
2022/03/16 05:56:05;;;;;;;20.07;15.33;;;6.90;92.80;;;;;;5033249;28;20889;-70
2022/03/16 05:58:31;;;;;;;20.30;16.17;;;6.90;92.80;;;;;;5033645;28;20541;-70
2022/03/16 06:00:58;;;;;;;22.67;16.50;;;6.90;92.90;;;;;;5033417;28;20462;-70
2022/03/16 06:03:25;;;;;;;23.30;17.17;;;6.90;93.00;;;;;;5033809;28;20813;-70
2022/03/16 06:05:52;;;;;;;19.23;15.57;;;6.80;93.10;;;;;;5033446;28;20847;-70
2022/03/16 06:08:20;;;;;;;21.40;16.90;;;6.90;93.20;;;;;;5033474;28;20818;-70
2022/03/16 06:10:46;;;;;;;22.87;17.47;;;6.90;93.30;;;;;;5033386;28;20469;-70
2022/03/16 06:13:13;;;;;;;24.83;17.90;;;6.90;93.30;;;;;;5033506;28;20450;-70
2022/03/16 06:15:41;;;;;;;22.10;16.40;;;6.90;93.40;;;;;;5033397;28;20493;-70
2022/03/16 06:18:08;;;;;;;23.03;16.80;;;6.90;93.30;;;;;;5044189;28;20446;-68
2022/03/16 06:20:36;;;;;;;21.30;16.80;;;6.90;93.30;;;;;;5051142;28;20462;-68
2022/03/16 06:23:04;;;;;;;24.00;17.20;;;7.00;93.40;;;;;;5049346;28;20439;-69
2022/03/16 06:25:33;;;;;;;23.50;16.73;;;6.90;93.40;;;;;;5047886;28;20486;-69
2022/03/16 06:28:00;;;;;;;20.80;16.67;;;7.00;93.60;;;;;;5046843;28;20450;-69
2022/03/16 06:30:26;;;;;;;17.87;14.70;;;7.00;93.60;;;;;;5047509;28;20450;-69
2022/03/16 06:32:53;;;;;;;19.70;15.30;;;7.10;93.60;;;;;;5047236;28;20454;-69
2022/03/16 06:35:20;;;;;;;23.93;16.80;;;7.10;93.40;;;;;;5047001;28;20509;-69
2022/03/16 06:37:47;;;;;;;18.50;15.53;;;7.20;93.30;;;;;;5046852;28;20446;-69
2022/03/16 06:40:15;;;;;;;19.10;15.70;;;7.20;93.30;;;;;;5052080;28;20431;-69
2022/03/16 06:42:54;;;;;;;19.50;14.97;;;7.20;93.20;;;;;;5050546;28;20968;-69
2022/03/16 06:45:22;;;;;;;22.00;15.97;;;7.20;93.00;;;;;;5049084;28;20481;-68
2022/03/16 06:47:49;;;;;;;16.23;13.77;;;7.30;93.10;;;;;;5050639;28;20457;-68
2022/03/16 06:50:15;;;;;;;19.60;16.43;;;7.30;93.00;;;;;;5050245;28;20454;-68
2022/03/16 06:52:43;;;;;;;16.10;14.20;;;7.30;93.20;;;;;;5049827;28;20462;-68
2022/03/16 06:55:10;;;;;;;16.67;14.87;;;7.40;93.20;;;;;;5051110;28;20486;-68
2022/03/16 06:57:37;;;;;;;19.20;13.80;;;7.50;93.30;;;;;;5053707;28;20449;-68
2022/03/16 07:00:08;;;;;;;19.90;15.00;;;7.50;93.20;;;;;;5052618;28;20450;-68
2022/03/16 07:02:51;;;;;;;20.27;16.70;;;7.50;93.10;;;;;;5052706;28;20445;-68
2022/03/16 07:05:18;;;;;;;16.10;13.50;;;7.60;93.20;;;;;;5050733;28;20473;-68
2022/03/16 07:07:45;;;;;;;19.17;13.83;;;7.60;93.20;;;;;;5050469;28;20945;-68
2022/03/16 07:10:12;;;;;;;22.00;15.50;;;7.60;93.30;;;;;;5049082;28;20462;-68
2022/03/16 07:12:38;;;;;;;15.40;13.70;;;7.70;93.40;;;;;;5048771;28;20498;-68
2022/03/16 07:15:09;;;;;;;15.20;12.13;;;7.80;93.40;;;;;;5048313;28;20493;-68
2022/03/16 07:17:36;;;;;;;14.10;12.53;;;7.80;93.30;;;;;;5050502;28;20448;-68
2022/03/16 07:20:04;;;;;;;15.70;13.23;;;7.80;93.40;;;;;;5048683;28;20463;-68
2022/03/16 07:22:30;;;;;;;20.37;14.40;;;7.80;93.30;;;;;;5049843;28;20454;-69
2022/03/16 07:24:59;;;;;;;17.33;15.47;;;7.90;93.30;;;;;;5048281;28;20466;-69
2022/03/16 07:27:25;;;;;;;18.80;15.60;;;8.00;93.10;;;;;;5047836;28;20453;-68
2022/03/16 07:29:52;;;;;;;16.30;14.30;;;8.00;93.10;;;;;;5047059;28;20439;-68
2022/03/16 07:32:20;;;;;;;19.80;15.23;;;8.00;93.20;;;;;;5047060;28;20458;-69
2022/03/16 07:34:47;;;;;;;17.30;15.43;;;8.10;93.30;;;;;;5048929;28;20486;-70
2022/03/16 07:37:14;;;;;;;19.93;15.50;;;8.20;92.90;;;;;;5050656;28;20450;-68
2022/03/16 07:39:41;;;;;;;20.20;16.27;;;8.30;92.90;;;;;;5048404;28;20537;-68
2022/03/16 07:42:08;;;;;;;18.33;15.60;;;8.30;92.80;;;;;;5048231;28;20446;-68
2022/03/16 07:44:35;;;;;;;22.73;15.37;;;8.40;92.90;;;;;;5050341;28;20494;-68
2022/03/16 07:47:02;;;;;;;22.70;17.53;;;8.50;92.80;;;;;;5048584;28;20458;-70
2022/03/16 07:49:30;;;;;;;26.60;17.17;;;8.60;92.50;;;;;;5052916;28;20450;-70
2022/03/16 07:51:57;;;;;;;17.50;15.60;;;8.60;91.90;;;;;;5052268;28;20446;-68
2022/03/16 07:54:24;;;;;;;20.53;18.40;;;8.70;91.90;;;;;;5046200;28;20466;-68
2022/03/16 07:56:51;;;;;;;23.47;19.03;;;8.70;91.70;;;;;;5042058;28;20454;-69
2022/03/16 07:59:17;;;;;;;23.87;19.50;;;8.60;92.10;;;;;;5041152;28;20493;-69
2022/03/16 08:01:44;;;;;;;20.43;18.17;;;8.60;92.10;;;;;;5041146;28;20450;-69
2022/03/16 08:04:11;;;;;;;22.20;18.20;;;8.50;92.30;;;;;;5040123;28;20486;-68
2022/03/16 08:06:39;;;;;;;21.87;19.43;;;8.50;92.60;;;;;;5041873;28;20470;-68
2022/03/16 08:09:06;;;;;;;20.33;17.67;;;8.60;92.80;;;;;;5041337;28;20455;-69
2022/03/16 08:11:33;;;;;;;21.20;17.43;;;8.60;92.50;;;;;;5041785;28;20458;-69
2022/03/16 08:14:00;;;;;;;21.10;18.03;;;8.70;92.30;;;;;;5041913;28;20454;-69
2022/03/16 08:16:26;;;;;;;20.23;17.13;;;8.80;92.10;;;;;;5041102;28;20490;-69
2022/03/16 08:18:53;;;;;;;21.00;18.70;;;8.90;92.20;;;;;;5042060;28;20464;-69
2022/03/16 08:21:20;;;;;;;20.03;17.80;;;9.00;91.90;;;;;;5042144;28;20482;-69
2022/03/16 08:23:48;;;;;;;24.10;18.40;;;9.20;92.00;;;;;;5039720;28;20480;-69
2022/03/16 08:26:16;;;;;;;23.47;20.90;;;9.30;91.80;;;;;;5042244;28;20451;-68
2022/03/16 08:28:45;;;;;;;21.13;18.17;;;9.40;91.60;;;;;;5042534;28;20934;-69
2022/03/16 08:31:14;;;;;;;22.70;19.57;;;9.50;91.80;;;;;;5044367;28;20850;-69
2022/03/16 08:33:41;;;;;;;21.20;18.90;;;9.60;90.70;;;;;;5042855;28;20541;-69
2022/03/16 08:36:08;;;;;;;20.47;18.17;;;9.80;90.60;;;;;;5041924;28;20486;-69
2022/03/16 08:38:37;;;;;;;23.23;20.77;;;9.80;90.30;;;;;;5041929;28;20451;-69
2022/03/16 08:41:06;;;;;;;21.93;19.73;;;9.90;89.80;;;;;;5042833;28;20504;-69
2022/03/16 08:43:33;;;;;;;24.20;20.80;;;10.00;88.10;;;;;;5042431;28;20458;-69
2022/03/16 08:46:00;;;;;;;24.03;20.83;;;10.10;88.40;;;;;;5043062;28;20467;-69
2022/03/16 08:48:27;;;;;;;23.70;20.27;;;10.10;88.20;;;;;;5043346;28;20454;-69
2022/03/16 08:50:54;;;;;;;24.50;21.37;;;10.10;87.40;;;;;;5043886;28;20457;-69
2022/03/16 08:53:21;;;;;;;22.50;19.97;;;10.10;87.80;;;;;;5043323;28;20448;-69
2022/03/16 08:55:48;;;;;;;23.07;20.60;;;10.20;88.00;;;;;;5042996;28;21078;-69
2022/03/16 08:58:16;;;;;;;24.87;20.33;;;10.20;87.60;;;;;;5045266;28;20854;-69
2022/03/16 09:00:42;;;;;;;22.77;19.57;;;10.30;87.60;;;;;;5045507;28;20476;-69
2022/03/16 09:03:09;;;;;;;20.83;18.70;;;10.40;86.80;;;;;;5045042;28;20465;-69
2022/03/16 09:05:36;;;;;;;22.90;19.73;;;10.40;87.30;;;;;;5046824;28;20973;-69
2022/03/16 09:08:03;;;;;;;19.37;17.37;;;10.50;88.00;;;;;;5046136;28;20439;-70
2022/03/16 09:10:32;;;;;;;21.30;17.40;;;10.60;87.80;;;;;;5049076;28;20470;-70
2022/03/16 09:12:59;;;;;;;20.23;18.10;;;10.70;87.70;;;;;;5049578;28;20462;-70
2022/03/16 09:15:29;;;;;;;18.90;16.73;;;10.70;87.20;;;;;;5050109;28;20943;-70
2022/03/16 09:17:55;;;;;;;17.63;15.77;;;10.80;87.20;;;;;;5047566;28;20438;-70
2022/03/16 09:20:24;;;;;;;18.37;16.37;;;10.80;87.30;;;;;;5046470;28;20454;-70
2022/03/16 09:22:51;;;;;;;20.30;18.10;;;10.80;87.70;;;;;;5048733;28;20451;-70
2022/03/16 09:25:19;;;;;;;19.03;17.03;;;10.90;87.20;;;;;;5051921;28;20490;-70
2022/03/16 09:27:45;;;;;;;18.03;16.13;;;10.90;86.70;;;;;;5051987;28;20867;-69
2022/03/16 09:30:16;;;;;;;18.50;16.57;;;10.90;86.80;;;;;;5052836;28;20446;-69
2022/03/16 09:32:46;;;;;;;17.70;14.97;;;11.00;87.10;;;;;;5053201;28;20423;-69
2022/03/16 09:35:13;;;;;;;17.20;15.40;;;11.00;87.10;;;;;;5052621;28;20490;-69
2022/03/16 09:37:41;;;;;;;18.00;16.20;;;10.90;87.40;;;;;;5051180;28;20453;-69
2022/03/16 09:40:12;;;;;;;18.27;14.77;;;11.00;86.90;;;;;;5052503;28;20469;-70
2022/03/16 09:42:40;;;;;;;15.50;13.90;;;11.10;87.10;;;;;;5053600;28;20450;-69
2022/03/16 09:45:10;;;;;;;16.70;14.60;;;11.20;87.30;;;;;;5051952;28;20494;-71
2022/03/16 09:47:38;;;;;;;17.40;15.50;;;11.30;86.60;;;;;;5049855;28;20522;-71
2022/03/16 09:50:10;;;;;;;15.50;14.00;;;11.50;86.90;;;;;;5052460;28;20446;-71
2022/03/16 09:52:37;;;;;;;15.70;14.13;;;11.60;85.30;;;;;;5052641;28;20449;-70
2022/03/16 09:55:06;;;;;;;16.27;14.57;;;11.80;85.00;;;;;;5052644;28;20467;-70
2022/03/16 09:57:33;;;;;;;14.73;12.97;;;12.00;84.80;;;;;;5053045;28;20481;-70
2022/03/16 10:00:00;;;;;;;16.33;14.73;;;12.10;84.40;;;;;;5052560;28;20443;-70
2022/03/16 10:02:27;;;;;;;14.57;13.17;;;12.30;83.20;;;;;;5052082;28;20457;-70
2022/03/16 10:04:55;;;;;;;14.90;13.47;;;12.60;82.40;;;;;;5052120;28;20459;-70
2022/03/16 10:07:29;;;;;;;14.03;12.73;;;12.90;80.50;;;;;;5052831;28;20518;-70
2022/03/16 10:15:25;;;;;;;13.03;11.80;;;14.00;76.40;;;;;;5058186;28;20492;-70
2022/03/16 10:18:03;;;;;;;13.13;11.90;;;14.40;74.00;;;;;;5057314;28;20461;-70
2022/03/16 10:20:32;;;;;;;12.87;11.67;;;14.70;71.90;;;;;;5057433;28;20461;-70
2022/03/16 10:23:08;;;;;;;12.33;11.20;;;14.80;71.20;;;;;;5057176;28;20482;-70
2022/03/16 10:25:37;;;;;;;13.87;12.43;;;15.20;69.00;;;;;;5057564;28;20526;-70
2022/03/16 10:28:12;;;;;;;11.00;10.00;;;15.40;67.90;;;;;;5056962;28;20429;-70
2022/03/16 10:30:40;;;;;;;12.47;11.30;;;15.80;66.50;;;;;;5057748;28;20430;-70
2022/03/16 10:33:08;;;;;;;11.70;10.50;;;16.10;63.00;;;;;;5056595;28;20453;-70
2022/03/16 10:35:34;;;;;;;11.47;10.37;;;16.30;62.30;;;;;;5057707;28;20466;-70
2022/03/16 10:38:12;;;;;;;10.50;9.50;;;16.70;61.30;;;;;;5056963;28;20507;-70
2022/03/16 10:40:39;;;;;;;11.17;9.60;;;16.80;58.70;;;;;;5057397;28;20444;-70
2022/03/16 10:48:59;;;;;;;10.30;9.40;;;17.70;55.00;;;;;;5057163;28;20441;-71
2022/03/16 10:51:25;;;;;;;9.70;8.80;;;18.10;55.90;;;;;;5057005;28;20433;-71
2022/03/16 10:53:55;;;;;;;10.30;9.40;;;18.70;53.80;;;;;;5056132;28;20450;-70
2022/03/16 10:56:23;;;;;;;12.53;11.13;;;19.10;51.80;;;;;;5054937;28;20490;-71
2022/03/16 10:58:52;;;;;;;11.00;9.93;;;19.50;51.00;;;;;;5057093;28;20442;-72
2022/03/16 11:01:20;;;;;;;10.40;9.43;;;19.90;49.70;;;;;;5056655;28;20505;-71
2022/03/16 11:03:49;;;;;;;10.27;9.37;;;20.30;48.30;;;;;;5056670;28;20431;-71
2022/03/16 11:06:20;;;;;;;10.93;10.03;;;20.60;47.20;;;;;;5056655;28;20925;-71
2022/03/16 11:08:48;;;;;;;10.80;9.80;;;21.00;46.50;;;;;;5052358;28;20453;-71
2022/03/16 11:14:03;;;;;;;10.67;9.77;;;21.60;44.30;;;;;;5053772;28;20434;-70
2022/03/16 11:16:31;;;;;;;9.53;8.73;;;21.70;43.00;;;;;;5053830;28;20478;-71
2022/03/16 11:18:59;;;;;;;9.57;8.87;;;21.90;43.30;;;;;;5054407;28;20935;-71
2022/03/16 11:21:31;;;;;;;9.17;8.40;;;21.80;42.00;;;;;;5054753;28;20453;-71
2022/03/16 11:24:17;;;;;;;9.43;8.63;;;21.50;42.10;;;;;;5055154;28;20490;-71
2022/03/16 11:27:25;;;;;;;9.50;8.80;;;20.90;42.30;;;;;;5054104;28;20421;-70
2022/03/16 11:30:13;;;;;;;10.60;8.80;;;20.50;43.70;;;;;;5052843;28;20481;-71
2022/03/16 11:32:41;;;;;;;9.83;9.03;;;20.60;43.90;;;;;;5053344;28;20441;-71
2022/03/16 11:35:09;;;;;;;9.30;8.57;;;20.80;43.30;;;;;;5049366;28;20466;-71
2022/03/16 11:37:39;;;;;;;9.83;8.93;;;21.10;42.90;;;;;;5049898;28;20470;-71
2022/03/16 11:40:12;;;;;;;10.07;9.20;;;21.30;42.40;;;;;;5045559;28;20455;-71
2022/03/16 11:43:04;;;;;;;8.93;8.23;;;21.30;41.90;;;;;;5041196;28;20664;-71
2022/03/16 11:45:37;;;;;;;9.23;8.47;;;21.40;42.20;;;;;;5039217;28;20562;-71
2022/03/16 11:48:40;;;;;;;9.30;8.50;;;21.70;41.40;;;;;;5040695;28;20489;-71
2022/03/16 11:51:23;;;;;;;9.90;9.10;;;21.80;40.80;;;;;;5043542;28;20521;-71
2022/03/16 11:54:10;;;;;;;9.27;8.50;;;21.60;41.50;;;;;;5044792;28;20449;-71
2022/03/16 11:56:53;;;;;;;9.37;8.50;;;21.50;41.50;;;;;;5041517;28;21068;-71
2022/03/16 11:59:47;;;;;;;8.87;8.07;;;21.50;41.60;;;;;;5039695;28;20438;-71
2022/03/16 12:02:27;;;;;;;9.60;8.80;;;21.80;41.50;;;;;;5040304;28;20541;-71
2022/03/16 12:05:01;;;;;;;8.97;8.07;;;21.90;40.50;;;;;;5040045;28;20481;-71
2022/03/16 12:07:30;;;;;;;8.73;8.03;;;22.00;39.90;;;;;;5042013;28;20454;-71
2022/03/16 12:10:01;;;;;;;9.17;8.37;;;22.00;39.70;;;;;;5043258;28;20453;-71
2022/03/16 12:15:25;;;;;;;9.43;8.63;;;21.70;40.40;;;;;;5041619;28;20465;-71
2022/03/16 12:18:31;;;;;;;9.23;8.53;;;21.80;40.50;;;;;;5043131;28;20475;-71
2022/03/16 12:21:10;;;;;;;8.83;8.13;;;22.00;38.70;;;;;;5038948;28;20465;-71
2022/03/16 12:23:54;;;;;;;9.17;8.37;;;21.90;39.60;;;;;;5043098;28;20510;-71
2022/03/16 12:26:24;;;;;;;9.20;8.40;;;22.00;39.70;;;;;;5044977;28;20427;-71
2022/03/16 12:28:58;;;;;;;8.40;7.70;;;22.10;39.40;;;;;;5041548;28;20430;-71
2022/03/16 12:31:25;;;;;;;8.93;8.20;;;22.10;39.20;;;;;;5038787;28;20449;-71
2022/03/16 12:33:55;;;;;;;8.93;8.13;;;22.30;39.60;;;;;;5044487;28;20477;-71
2022/03/16 12:36:25;;;;;;;9.80;9.00;;;22.50;39.30;;;;;;5043068;28;20466;-71
2022/03/16 12:38:53;;;;;;;8.30;7.60;;;22.80;38.60;;;;;;5040775;28;20462;-71
2022/03/16 12:44:08;;;;;;;7.50;6.90;;;23.10;37.20;;;;;;5039028;28;20453;-71
2022/03/16 12:46:42;;;;;;;7.90;7.20;;;23.20;37.80;;;;;;5039413;28;20450;-71
2022/03/16 12:49:11;;;;;;;10.83;9.53;;;23.40;37.70;;;;;;5040506;28;20529;-71
2022/03/16 12:51:43;;;;;;;11.23;9.23;;;23.30;36.90;;;;;;5037987;28;20459;-71
2022/03/16 12:54:11;;;;;;;9.80;7.27;;;22.90;37.30;;;;;;5037869;28;20985;-71
2022/03/16 12:56:41;;;;;;;9.00;8.00;;;22.60;38.70;;;;;;5038547;28;20493;-71
2022/03/16 12:59:09;;;;;;;9.77;8.60;;;22.20;38.60;;;;;;5037114;28;20968;-71
2022/03/16 13:01:36;;;;;;;8.70;8.00;;;22.00;39.30;;;;;;5038134;28;20516;-71